Time;durP1;ratioP1;P1;durP2;ratioP2;P2;SDS_P1;SDS_P2;PMS_P1;PMS_P2;Temp;Humidity;BMP_temperature;BMP_pressure;BME280_temperature;BME280_humidity;BME280_pressure;Samples;Min_cycle;Max_cycle;Signal;HPM_P1;HPM_P2
2022/10/13 00:00:40;;;;;;;15.00;12.33;;;12.80;99.90;;;;;;5074214;28;20655;-44
2022/10/13 00:03:06;;;;;;;16.27;14.53;;;12.80;99.90;;;;;;5075372;28;20478;-45
2022/10/13 00:05:31;;;;;;;14.67;13.17;;;12.80;99.90;;;;;;5075612;28;20413;-45
2022/10/13 00:07:57;;;;;;;16.90;15.17;;;12.90;99.90;;;;;;5075165;28;20514;-43
2022/10/13 00:10:24;;;;;;;19.83;15.93;;;12.90;99.90;;;;;;5074404;28;20231;-44
2022/10/13 00:12:50;;;;;;;17.80;15.83;;;12.90;99.90;;;;;;5075838;28;20643;-43
2022/10/13 00:15:16;;;;;;;18.00;15.97;;;13.00;99.90;;;;;;5075719;28;20454;-46
2022/10/13 00:17:41;;;;;;;17.00;15.03;;;13.00;99.90;;;;;;5074677;28;20296;-44
2022/10/13 00:20:09;;;;;;;17.53;15.53;;;13.00;99.90;;;;;;5078033;28;20418;-46
2022/10/13 00:22:34;;;;;;;19.17;15.67;;;13.10;99.90;;;;;;5078773;28;20189;-45
2022/10/13 00:25:00;;;;;;;17.60;15.80;;;13.10;99.90;;;;;;5078833;28;20409;-43
2022/10/13 00:27:26;;;;;;;19.47;17.23;;;13.10;99.90;;;;;;5077044;28;20424;-45
2022/10/13 00:29:52;;;;;;;18.97;16.60;;;13.20;99.90;;;;;;5078114;28;20492;-44
2022/10/13 00:32:19;;;;;;;20.83;15.93;;;13.20;99.90;;;;;;5077840;28;20178;-44
2022/10/13 00:34:45;;;;;;;18.50;15.20;;;13.20;99.90;;;;;;5077906;28;20220;-44
2022/10/13 00:37:10;;;;;;;18.27;15.10;;;13.20;99.90;;;;;;5078049;28;20507;-43
2022/10/13 00:39:36;;;;;;;18.57;16.57;;;13.30;99.90;;;;;;5077544;28;20235;-45
2022/10/13 00:42:03;;;;;;;16.40;14.70;;;13.20;99.90;;;;;;5060159;28;20179;-45
2022/10/13 00:45:04;;;;;;;20.47;16.63;;;13.20;99.90;;;;;;5078825;28;20833;-43
2022/10/13 00:47:40;;;;;;;22.07;17.37;;;13.30;99.90;;;;;;5077967;28;20491;-46
2022/10/13 00:50:13;;;;;;;18.43;14.90;;;13.30;99.90;;;;;;5077540;28;20403;-46
2022/10/13 00:52:40;;;;;;;21.63;17.07;;;13.20;99.90;;;;;;5076839;28;20440;-45
2022/10/13 00:55:07;;;;;;;20.53;16.43;;;13.20;99.90;;;;;;5077925;28;20412;-44
2022/10/13 00:57:33;;;;;;;23.07;17.80;;;13.20;99.90;;;;;;5077975;28;20906;-45
2022/10/13 01:00:00;;;;;;;17.63;15.67;;;13.10;99.90;;;;;;5078551;28;20899;-45
2022/10/13 01:02:31;;;;;;;20.57;16.30;;;13.10;99.90;;;;;;5077370;28;20456;-44
2022/10/13 01:04:57;;;;;;;21.37;16.60;;;13.10;99.90;;;;;;5078275;28;20424;-45
2022/10/13 01:07:23;;;;;;;20.60;15.03;;;13.00;99.90;;;;;;5078132;28;20427;-46
2022/10/13 01:09:48;;;;;;;19.40;16.53;;;13.00;99.90;;;;;;5076698;28;20431;-43
2022/10/13 01:12:40;;;;;;;20.10;17.97;;;13.00;99.90;;;;;;5077061;28;20410;-44
2022/10/13 01:15:22;;;;;;;20.70;16.27;;;12.90;99.90;;;;;;5077619;28;20188;-47
2022/10/13 01:18:21;;;;;;;17.03;15.20;;;12.90;99.90;;;;;;5075828;28;20464;-47
2022/10/13 01:21:23;;;;;;;16.50;13.63;;;12.90;99.90;;;;;;5077606;28;20481;-45
2022/10/13 01:24:19;;;;;;;21.17;14.87;;;12.80;99.90;;;;;;5077558;28;20543;-46
2022/10/13 01:27:13;;;;;;;20.17;15.63;;;12.70;99.90;;;;;;5077079;28;20408;-46
2022/10/13 01:30:07;;;;;;;19.53;15.53;;;12.80;99.90;;;;;;5077189;28;20823;-44
2022/10/13 01:32:51;;;;;;;21.07;17.20;;;12.80;99.90;;;;;;5075714;28;20431;-49
2022/10/13 01:35:35;;;;;;;19.63;15.90;;;12.70;99.90;;;;;;5077430;28;20427;-43
2022/10/13 01:38:03;;;;;;;21.23;15.60;;;12.80;99.90;;;;;;5076099;28;20466;-46
2022/10/13 01:40:59;;;;;;;20.17;15.23;;;12.80;99.90;;;;;;5076322;28;20475;-44
2022/10/13 01:43:31;;;;;;;20.67;15.93;;;12.70;99.90;;;;;;5072492;28;20412;-44
2022/10/13 01:46:07;;;;;;;20.10;16.90;;;12.80;99.90;;;;;;5075360;28;20432;-45
2022/10/13 01:48:35;;;;;;;20.53;16.43;;;12.80;99.90;;;;;;5075688;28;20415;-43
2022/10/13 01:51:01;;;;;;;20.60;16.00;;;12.80;99.90;;;;;;5077180;28;20434;-46
2022/10/13 01:53:28;;;;;;;21.50;18.13;;;12.90;99.90;;;;;;5075721;28;20416;-46
2022/10/13 01:55:57;;;;;;;21.50;17.17;;;12.90;99.90;;;;;;5075947;28;20583;-46
2022/10/13 01:58:25;;;;;;;20.47;16.27;;;12.90;99.90;;;;;;5076541;28;20769;-45
2022/10/13 02:01:14;;;;;;;21.37;17.50;;;13.00;99.90;;;;;;5074467;28;20433;-46
2022/10/13 02:03:48;;;;;;;20.93;16.50;;;12.90;99.90;;;;;;5075701;28;20417;-44
2022/10/13 02:06:17;;;;;;;20.50;17.20;;;13.00;99.90;;;;;;5076715;28;20423;-48
2022/10/13 02:08:52;;;;;;;22.20;17.50;;;13.00;99.90;;;;;;5074882;28;20747;-48
2022/10/13 02:11:21;;;;;;;21.57;18.00;;;13.00;99.90;;;;;;5075703;28;20471;-45
2022/10/13 02:13:53;;;;;;;24.23;17.50;;;13.00;99.90;;;;;;5076205;28;20436;-44
2022/10/13 02:16:22;;;;;;;23.43;17.50;;;13.00;99.90;;;;;;5075904;28;20870;-48
2022/10/13 02:18:48;;;;;;;20.13;17.27;;;13.10;99.90;;;;;;5075578;28;20452;-47
2022/10/13 02:21:15;;;;;;;26.10;18.57;;;13.10;99.90;;;;;;5075793;28;20508;-47
2022/10/13 02:23:42;;;;;;;24.17;17.73;;;13.10;99.90;;;;;;5075659;28;20411;-45
2022/10/13 02:26:08;;;;;;;19.60;16.87;;;13.10;99.90;;;;;;5075969;28;20449;-45
2022/10/13 02:28:36;;;;;;;20.17;18.07;;;13.20;99.90;;;;;;5075309;28;20448;-48
2022/10/13 02:31:02;;;;;;;22.40;16.90;;;13.10;99.90;;;;;;5074845;28;20492;-48
2022/10/13 02:33:27;;;;;;;20.60;17.37;;;13.20;99.90;;;;;;5075024;28;20711;-46
2022/10/13 02:35:53;;;;;;;21.53;16.30;;;13.20;99.90;;;;;;5075873;28;20427;-44
2022/10/13 02:38:19;;;;;;;20.03;15.43;;;13.20;99.90;;;;;;5075516;28;20217;-44
2022/10/13 02:40:45;;;;;;;21.40;17.70;;;13.20;99.90;;;;;;5074432;28;20197;-45
2022/10/13 02:43:10;;;;;;;21.40;17.17;;;13.20;99.90;;;;;;5073696;28;20493;-46
2022/10/13 02:45:36;;;;;;;20.30;17.17;;;13.20;99.90;;;;;;5072938;28;20178;-43
2022/10/13 02:48:02;;;;;;;20.80;16.73;;;13.20;99.90;;;;;;5073181;28;20181;-48
2022/10/13 02:50:28;;;;;;;20.40;17.50;;;13.20;99.90;;;;;;5073552;28;20409;-43
2022/10/13 02:52:54;;;;;;;27.70;18.20;;;13.20;99.90;;;;;;5073037;28;20459;-46
2022/10/13 02:55:19;;;;;;;21.27;17.73;;;13.20;99.90;;;;;;5073956;28;20436;-45
2022/10/13 02:57:45;;;;;;;22.77;16.53;;;13.20;99.90;;;;;;5074617;28;20239;-43
2022/10/13 03:00:12;;;;;;;19.83;16.60;;;13.20;99.90;;;;;;5074824;28;20526;-44
2022/10/13 03:02:37;;;;;;;22.63;17.37;;;13.20;99.90;;;;;;5075341;28;20193;-45
2022/10/13 03:05:03;;;;;;;22.73;18.63;;;13.30;99.90;;;;;;5074832;28;20416;-45
2022/10/13 03:07:29;;;;;;;17.87;16.00;;;13.30;99.90;;;;;;5074144;28;20354;-44
2022/10/13 03:09:55;;;;;;;21.57;16.90;;;13.20;99.90;;;;;;5075156;28;20477;-43
2022/10/13 03:12:20;;;;;;;21.50;16.80;;;13.30;99.90;;;;;;5073947;28;20182;-44
2022/10/13 03:14:46;;;;;;;23.53;16.83;;;13.30;99.90;;;;;;5075240;28;20872;-46
2022/10/13 03:17:12;;;;;;;21.00;17.03;;;13.30;99.90;;;;;;5074563;28;20275;-45
2022/10/13 03:19:37;;;;;;;24.57;18.10;;;13.30;99.90;;;;;;5075171;28;20170;-47
2022/10/13 03:22:03;;;;;;;18.83;15.30;;;13.30;99.90;;;;;;5072237;28;20208;-48
2022/10/13 03:24:28;;;;;;;18.30;16.30;;;13.30;99.90;;;;;;5072027;28;20181;-45
2022/10/13 03:26:55;;;;;;;19.30;16.30;;;13.30;99.90;;;;;;5071765;28;20178;-48
2022/10/13 03:29:22;;;;;;;23.10;16.50;;;13.30;99.90;;;;;;5071448;28;20239;-44
2022/10/13 03:31:48;;;;;;;21.53;15.40;;;13.30;99.90;;;;;;5071435;28;20506;-46
2022/10/13 03:34:15;;;;;;;21.07;16.03;;;13.30;99.90;;;;;;5072158;28;20428;-43
2022/10/13 03:36:41;;;;;;;20.73;17.20;;;13.30;99.90;;;;;;5072039;28;20479;-47
2022/10/13 03:39:06;;;;;;;19.33;16.17;;;13.20;99.90;;;;;;5072879;28;20412;-44
2022/10/13 03:41:32;;;;;;;19.50;16.43;;;13.20;99.90;;;;;;5071224;28;20214;-44
2022/10/13 03:43:58;;;;;;;21.37;16.27;;;13.20;99.90;;;;;;5072200;28;20178;-44
2022/10/13 03:46:26;;;;;;;16.60;14.37;;;13.20;99.90;;;;;;5070911;28;20178;-45
2022/10/13 03:48:52;;;;;;;19.80;16.43;;;13.10;99.90;;;;;;5070832;28;20568;-44
2022/10/13 03:51:19;;;;;;;18.97;15.00;;;13.10;99.90;;;;;;5070485;28;20429;-43
2022/10/13 03:53:46;;;;;;;18.53;16.60;;;13.10;99.90;;;;;;5072344;28;20178;-46
2022/10/13 03:56:15;;;;;;;17.27;14.60;;;13.10;99.90;;;;;;5072730;28;20458;-45
2022/10/13 03:58:41;;;;;;;20.20;16.23;;;13.10;99.90;;;;;;5073551;28;20536;-44
2022/10/13 04:01:07;;;;;;;19.47;16.03;;;13.10;99.90;;;;;;5072712;28;20632;-44
2022/10/13 04:03:33;;;;;;;19.80;15.00;;;13.10;99.90;;;;;;5073587;28;20413;-45
2022/10/13 04:06:00;;;;;;;18.00;15.20;;;13.10;99.90;;;;;;5072669;28;20561;-44
2022/10/13 04:08:27;;;;;;;18.00;14.63;;;13.10;99.90;;;;;;5073738;28;20423;-47
2022/10/13 04:11:04;;;;;;;17.07;15.23;;;13.10;99.90;;;;;;5074148;28;20435;-44
2022/10/13 04:13:30;;;;;;;16.30;14.60;;;13.10;99.90;;;;;;5074787;28;20429;-44
2022/10/13 04:16:02;;;;;;;16.43;14.70;;;13.10;99.90;;;;;;5075609;28;20497;-45
2022/10/13 04:18:27;;;;;;;18.30;15.10;;;13.10;99.90;;;;;;5076658;28;20490;-46
2022/10/13 04:20:53;;;;;;;19.70;14.53;;;13.10;99.90;;;;;;5075985;28;20459;-45
2022/10/13 04:23:19;;;;;;;20.07;16.37;;;13.10;99.90;;;;;;5076120;28;20209;-45
2022/10/13 04:25:45;;;;;;;20.03;15.47;;;13.00;99.90;;;;;;5075987;28;20525;-44
2022/10/13 04:28:11;;;;;;;16.87;15.00;;;13.00;99.90;;;;;;5075586;28;20611;-45
2022/10/13 04:30:37;;;;;;;17.50;14.27;;;13.00;99.90;;;;;;5079297;28;20442;-44
2022/10/13 04:33:02;;;;;;;17.20;14.87;;;13.00;99.90;;;;;;5092453;28;21082;-45
2022/10/13 04:35:28;;;;;;;19.37;15.33;;;12.90;99.90;;;;;;5091112;28;20421;-46
2022/10/13 04:37:56;;;;;;;18.27;15.30;;;12.90;99.90;;;;;;5091716;28;20209;-44
2022/10/13 04:40:22;;;;;;;18.63;15.10;;;12.90;99.90;;;;;;5091334;28;20473;-43
2022/10/13 04:42:49;;;;;;;19.57;15.40;;;12.90;99.90;;;;;;5089239;28;20428;-44
2022/10/13 04:45:15;;;;;;;18.70;15.20;;;12.90;99.90;;;;;;5089495;28;20592;-44
2022/10/13 04:47:41;;;;;;;18.33;15.00;;;12.90;99.90;;;;;;5071680;28;20580;-43
2022/10/13 04:50:07;;;;;;;18.03;15.60;;;12.90;99.90;;;;;;5073001;28;20900;-43
2022/10/13 04:52:34;;;;;;;18.57;15.93;;;12.90;99.90;;;;;;5090063;28;20314;-46
2022/10/13 04:55:00;;;;;;;21.33;16.10;;;12.90;99.90;;;;;;5091780;28;20425;-44
2022/10/13 04:57:26;;;;;;;20.93;17.23;;;12.90;99.90;;;;;;5087921;28;20480;-44
2022/10/13 04:59:51;;;;;;;19.50;17.00;;;12.90;99.90;;;;;;5089166;28;20177;-44
2022/10/13 05:02:17;;;;;;;21.77;18.00;;;12.90;99.90;;;;;;5089491;28;20188;-44
2022/10/13 05:04:43;;;;;;;19.73;16.07;;;12.90;99.90;;;;;;5101827;28;20188;-44
2022/10/13 05:07:09;;;;;;;22.00;17.70;;;12.90;99.90;;;;;;5113827;28;20476;-44
2022/10/13 05:09:35;;;;;;;20.20;15.50;;;12.90;99.90;;;;;;5094803;28;20752;-43
2022/10/13 05:12:00;;;;;;;17.83;15.20;;;12.90;99.90;;;;;;5090341;28;20562;-43
2022/10/13 05:14:26;;;;;;;23.17;17.40;;;12.90;99.90;;;;;;5088068;28;20273;-44
2022/10/13 05:16:52;;;;;;;17.50;15.80;;;12.90;99.90;;;;;;5092986;28;20203;-46
2022/10/13 05:19:17;;;;;;;20.63;17.27;;;12.80;99.90;;;;;;5085596;28;20560;-43
2022/10/13 05:21:43;;;;;;;21.23;16.70;;;12.80;99.90;;;;;;5087364;28;20192;-43
2022/10/13 05:24:12;;;;;;;22.13;16.70;;;12.80;99.90;;;;;;5089874;28;20181;-43
2022/10/13 05:26:39;;;;;;;22.20;17.20;;;12.80;99.90;;;;;;5088538;28;20210;-45
2022/10/13 05:29:05;;;;;;;24.83;17.63;;;12.80;99.90;;;;;;5088468;28;20425;-42
2022/10/13 05:31:32;;;;;;;19.17;16.77;;;12.80;99.90;;;;;;5088339;28;20427;-45
2022/10/13 05:33:58;;;;;;;21.83;17.10;;;12.80;99.90;;;;;;5091407;28;20423;-45
2022/10/13 05:36:29;;;;;;;19.10;16.70;;;12.80;99.90;;;;;;5092450;28;20720;-43
2022/10/13 05:38:58;;;;;;;19.40;16.60;;;12.80;99.90;;;;;;5092411;28;20423;-43
2022/10/13 05:41:25;;;;;;;22.80;18.33;;;12.80;99.90;;;;;;5088005;28;20964;-43
2022/10/13 05:43:56;;;;;;;23.13;17.73;;;12.80;99.90;;;;;;5086300;28;20423;-42
2022/10/13 05:46:22;;;;;;;22.30;17.17;;;12.80;99.90;;;;;;5088505;28;20809;-45
2022/10/13 05:48:48;;;;;;;23.23;16.67;;;12.80;99.90;;;;;;5087380;28;20547;-44
2022/10/13 05:51:26;;;;;;;21.43;17.17;;;12.90;99.90;;;;;;5087685;28;20454;-43
2022/10/13 05:53:58;;;;;;;17.40;15.50;;;12.90;99.90;;;;;;5090338;28;20512;-43
2022/10/13 05:56:28;;;;;;;19.47;15.80;;;12.90;99.90;;;;;;5089551;28;20471;-43
2022/10/13 05:59:02;;;;;;;19.00;14.67;;;12.90;99.90;;;;;;5090754;28;20696;-44
2022/10/13 06:01:32;;;;;;;19.10;14.60;;;12.90;99.90;;;;;;5091294;28;20506;-45
2022/10/13 06:04:00;;;;;;;17.13;14.47;;;13.00;99.90;;;;;;5093462;28;20410;-42
2022/10/13 06:06:26;;;;;;;21.70;15.17;;;13.00;99.90;;;;;;5094323;28;20492;-42
2022/10/13 06:08:52;;;;;;;18.67;15.93;;;13.10;99.90;;;;;;5093613;28;20445;-44
2022/10/13 06:11:18;;;;;;;19.57;15.97;;;13.20;99.90;;;;;;5092196;28;20536;-43
2022/10/13 06:13:44;;;;;;;18.37;16.30;;;13.30;99.90;;;;;;5092720;28;20447;-44
2022/10/13 06:16:10;;;;;;;20.03;15.83;;;13.30;99.90;;;;;;5091554;28;20411;-44
2022/10/13 06:18:35;;;;;;;18.93;15.97;;;13.40;99.90;;;;;;5093554;28;20490;-42
2022/10/13 06:21:01;;;;;;;16.53;13.93;;;13.50;99.90;;;;;;5093222;28;20597;-42
2022/10/13 06:23:27;;;;;;;17.80;14.90;;;13.60;99.90;;;;;;5073619;28;20357;-42
2022/10/13 06:25:53;;;;;;;16.73;14.70;;;13.80;99.90;;;;;;5073616;28;20250;-43
2022/10/13 06:28:19;;;;;;;15.87;13.70;;;13.80;99.90;;;;;;5074057;28;20525;-42
2022/10/13 06:30:56;;;;;;;18.73;14.07;;;13.90;99.90;;;;;;5074070;28;20416;-45
2022/10/13 06:33:22;;;;;;;15.50;13.53;;;14.00;99.90;;;;;;5073896;28;20435;-43
2022/10/13 06:35:49;;;;;;;15.70;12.80;;;14.00;99.90;;;;;;5073092;28;20435;-42
2022/10/13 06:38:15;;;;;;;14.00;12.60;;;14.00;99.90;;;;;;5071770;28;20469;-42
2022/10/13 06:40:41;;;;;;;15.30;13.07;;;14.00;99.80;;;;;;5069583;28;20417;-45
2022/10/13 06:43:06;;;;;;;17.93;12.80;;;14.00;99.70;;;;;;5070383;28;20178;-43
2022/10/13 06:45:32;;;;;;;20.10;14.27;;;14.10;99.70;;;;;;5072631;28;20323;-44
2022/10/13 06:47:58;;;;;;;13.63;12.07;;;14.10;99.60;;;;;;5072974;28;20204;-44
2022/10/13 06:50:23;;;;;;;14.13;12.63;;;14.20;99.50;;;;;;5072105;28;20166;-44
2022/10/13 06:52:49;;;;;;;19.50;13.87;;;14.30;99.40;;;;;;5071188;28;20212;-43
2022/10/13 06:55:15;;;;;;;16.53;13.97;;;14.40;99.30;;;;;;5073457;28;20218;-44
2022/10/13 06:57:41;;;;;;;17.77;13.47;;;14.50;99.20;;;;;;5072915;28;20625;-43
2022/10/13 07:00:07;;;;;;;14.77;12.77;;;14.60;99.00;;;;;;5070992;28;20534;-43
2022/10/13 07:02:33;;;;;;;14.67;12.13;;;14.70;98.90;;;;;;5069980;28;20179;-43
2022/10/13 07:04:59;;;;;;;19.43;14.17;;;14.80;98.70;;;;;;5069460;28;20474;-45
2022/10/13 07:07:25;;;;;;;18.07;12.97;;;14.90;98.50;;;;;;5072201;28;20201;-45
2022/10/13 07:09:50;;;;;;;18.57;13.07;;;15.00;98.40;;;;;;5071892;28;20188;-44
2022/10/13 07:12:16;;;;;;;14.40;12.87;;;15.00;98.20;;;;;;5072506;28;20430;-44
2022/10/13 07:14:42;;;;;;;16.47;12.70;;;15.20;98.20;;;;;;5072651;28;20190;-42
2022/10/13 07:17:07;;;;;;;17.33;12.90;;;15.30;98.00;;;;;;5072493;28;20202;-49
2022/10/13 07:19:33;;;;;;;14.97;13.03;;;15.40;97.70;;;;;;5074115;28;20181;-43
2022/10/13 07:21:59;;;;;;;13.83;8.80;;;15.60;97.40;;;;;;5072520;28;20164;-44
2022/10/13 07:24:24;;;;;;;8.87;4.20;;;15.70;97.70;;;;;;5071832;28;20181;-45
2022/10/13 07:26:50;;;;;;;7.97;5.40;;;16.20;99.90;;;;;;5071639;28;20478;-44
2022/10/13 07:29:16;;;;;;;9.70;7.03;;;16.80;99.90;;;;;;5073736;28;20319;-44
2022/10/13 07:31:43;;;;;;;12.27;7.60;;;17.20;99.90;;;;;;5073736;28;20596;-44
2022/10/13 07:34:08;;;;;;;8.10;5.93;;;17.60;99.90;;;;;;5073235;28;20713;-45
2022/10/13 07:36:34;;;;;;;7.97;6.10;;;17.90;99.90;;;;;;5073117;28;20413;-44
2022/10/13 07:39:02;;;;;;;11.53;7.03;;;18.30;99.90;;;;;;5075650;28;20182;-45
2022/10/13 07:41:28;;;;;;;11.83;6.40;;;18.60;99.30;;;;;;5073210;28;20211;-43
2022/10/13 07:43:56;;;;;;;9.47;6.10;;;18.90;98.50;;;;;;5076099;28;20426;-44
2022/10/13 07:46:24;;;;;;;10.23;6.60;;;19.10;97.80;;;;;;5075436;28;20412;-46
2022/10/13 07:48:55;;;;;;;9.30;7.10;;;19.40;97.40;;;;;;5077001;28;20496;-47
2022/10/13 07:51:21;;;;;;;8.87;6.60;;;19.70;96.60;;;;;;5076157;28;20844;-43
2022/10/13 07:53:47;;;;;;;8.90;6.37;;;20.00;95.90;;;;;;5072871;28;20824;-46
2022/10/13 07:56:14;;;;;;;6.30;5.70;;;20.40;95.40;;;;;;5075593;28;20572;-44
2022/10/13 07:58:42;;;;;;;7.47;6.00;;;20.70;94.60;;;;;;5074861;28;20894;-43
2022/10/13 08:01:09;;;;;;;6.97;6.17;;;21.10;93.70;;;;;;5073924;28;20402;-47
2022/10/13 08:03:35;;;;;;;7.70;5.77;;;21.50;92.90;;;;;;5076367;28;20480;-44
2022/10/13 08:06:03;;;;;;;9.03;6.60;;;21.80;91.90;;;;;;5074003;28;20490;-48
2022/10/13 08:08:29;;;;;;;6.80;6.00;;;21.90;91.50;;;;;;5073919;28;20427;-44
2022/10/13 08:10:59;;;;;;;6.53;5.90;;;21.90;90.80;;;;;;5074276;28;20681;-44
2022/10/13 08:13:25;;;;;;;7.43;5.80;;;22.00;90.50;;;;;;5075563;28;20425;-43
2022/10/13 08:15:50;;;;;;;9.07;6.27;;;22.10;90.00;;;;;;5075630;28;20489;-46
2022/10/13 08:18:16;;;;;;;11.67;7.27;;;22.20;90.00;;;;;;5075577;28;20287;-45
2022/10/13 08:20:43;;;;;;;9.70;6.07;;;22.20;88.20;;;;;;5076020;28;20170;-45
2022/10/13 08:23:10;;;;;;;10.53;7.23;;;22.30;88.00;;;;;;5077012;28;20170;-46
2022/10/13 08:25:39;;;;;;;10.63;8.53;;;22.50;85.00;;;;;;5075838;28;20405;-42
2022/10/13 08:28:10;;;;;;;11.87;9.90;;;22.70;81.50;;;;;;5074709;28;20406;-43
2022/10/13 08:30:36;;;;;;;9.33;7.80;;;23.00;79.30;;;;;;5074514;28;20675;-43
2022/10/13 08:33:02;;;;;;;9.53;8.57;;;23.50;77.30;;;;;;5073757;28;20861;-43
2022/10/13 08:35:27;;;;;;;14.93;8.17;;;24.20;73.80;;;;;;5073438;28;20440;-44
2022/10/13 08:37:53;;;;;;;9.03;8.13;;;24.70;70.90;;;;;;5075049;28;20207;-44
2022/10/13 08:40:20;;;;;;;10.17;7.27;;;25.30;68.20;;;;;;5074007;28;20570;-43
2022/10/13 08:42:46;;;;;;;8.77;7.00;;;26.00;65.10;;;;;;5075815;28;20245;-42
2022/10/13 08:45:19;;;;;;;9.07;7.80;;;26.50;62.00;;;;;;5074746;28;20805;-44
2022/10/13 08:47:50;;;;;;;9.53;8.37;;;26.60;59.00;;;;;;5076180;28;20196;-47
2022/10/13 08:50:20;;;;;;;9.73;8.20;;;26.70;57.90;;;;;;5091762;28;20638;-43
2022/10/13 08:52:49;;;;;;;9.50;8.20;;;26.50;57.30;;;;;;5089995;28;20439;-46
2022/10/13 08:55:27;;;;;;;9.97;7.00;;;26.10;57.20;;;;;;5075221;28;20483;-43
2022/10/13 08:57:53;;;;;;;7.20;6.50;;;25.80;57.70;;;;;;5076394;28;20478;-44
2022/10/13 09:00:19;;;;;;;7.57;6.87;;;25.60;57.60;;;;;;5074900;28;20710;-44
2022/10/13 09:02:44;;;;;;;8.87;7.93;;;25.60;57.50;;;;;;5074849;28;20721;-43
2022/10/13 09:05:21;;;;;;;12.10;9.03;;;25.60;57.00;;;;;;5090793;28;20180;-43
2022/10/13 09:07:48;;;;;;;8.37;7.43;;;25.60;56.40;;;;;;5090761;28;20175;-45
2022/10/13 09:10:15;;;;;;;9.03;7.70;;;25.60;56.60;;;;;;5076322;28;20511;-45
2022/10/13 09:12:41;;;;;;;10.90;7.53;;;25.60;56.40;;;;;;5075526;28;20489;-43
2022/10/13 09:15:10;;;;;;;11.63;8.10;;;25.70;56.10;;;;;;5074770;28;20793;-43
2022/10/13 09:17:38;;;;;;;7.73;6.80;;;25.60;56.20;;;;;;5075303;28;20474;-46
2022/10/13 09:20:24;;;;;;;11.07;6.30;;;25.40;56.50;;;;;;5075410;28;20474;-43
2022/10/13 09:23:03;;;;;;;8.57;7.47;;;25.10;56.90;;;;;;5090894;28;20718;-45
2022/10/13 09:25:29;;;;;;;7.80;6.93;;;24.80;57.20;;;;;;5073064;28;20492;-46
2022/10/13 09:28:00;;;;;;;7.67;6.10;;;24.60;57.70;;;;;;5089990;28;20433;-44
2022/10/13 09:30:35;;;;;;;9.33;6.20;;;24.40;58.20;;;;;;5072599;28;20477;-46
2022/10/13 09:33:07;;;;;;;9.53;6.70;;;24.20;58.80;;;;;;5073976;28;20479;-45
2022/10/13 09:35:54;;;;;;;9.30;6.77;;;24.00;58.60;;;;;;5072983;28;20704;-46
2022/10/13 09:38:23;;;;;;;8.00;6.90;;;23.70;59.10;;;;;;5074620;28;20476;-45
2022/10/13 09:41:20;;;;;;;8.63;6.20;;;23.30;59.50;;;;;;5074749;28;20833;-44
2022/10/13 09:43:45;;;;;;;9.53;8.23;;;22.90;60.10;;;;;;5089974;28;20423;-44
2022/10/13 09:46:33;;;;;;;8.50;7.10;;;22.70;61.40;;;;;;5073291;28;20429;-43
2022/10/13 09:49:05;;;;;;;11.10;7.00;;;22.50;61.50;;;;;;5085832;28;20176;-45
2022/10/13 09:51:34;;;;;;;10.83;8.37;;;22.40;62.00;;;;;;5086054;28;20857;-44
2022/10/13 09:54:00;;;;;;;10.10;7.73;;;22.40;62.90;;;;;;5070441;28;20497;-45
2022/10/13 09:56:32;;;;;;;7.13;6.43;;;22.40;63.30;;;;;;5069653;28;20469;-43
2022/10/13 09:59:14;;;;;;;8.50;7.37;;;22.40;63.90;;;;;;5070255;28;20426;-45
2022/10/13 10:01:44;;;;;;;8.27;6.80;;;22.60;63.90;;;;;;5086914;28;20578;-44
2022/10/13 10:04:13;;;;;;;10.50;8.50;;;22.70;63.90;;;;;;5085249;28;20414;-46
2022/10/13 10:06:39;;;;;;;8.73;7.83;;;22.80;63.30;;;;;;5087064;28;20497;-45
2022/10/13 10:09:35;;;;;;;8.63;6.87;;;22.80;62.90;;;;;;5071956;28;20487;-44
2022/10/13 10:12:03;;;;;;;8.97;7.47;;;22.80;63.40;;;;;;5087554;28;20807;-45
2022/10/13 10:14:32;;;;;;;10.10;8.63;;;22.60;63.50;;;;;;5073452;28;20649;-46
2022/10/13 10:17:13;;;;;;;8.47;6.90;;;22.50;64.00;;;;;;5070439;28;21192;-46
2022/10/13 10:19:57;;;;;;;13.30;8.53;;;22.40;64.60;;;;;;5071050;28;20529;-45
2022/10/13 10:22:44;;;;;;;7.70;7.00;;;22.20;65.10;;;;;;5072081;28;20408;-45
2022/10/13 10:25:32;;;;;;;10.13;7.80;;;22.10;65.80;;;;;;5072377;28;20434;-46
2022/10/13 10:28:12;;;;;;;8.80;7.70;;;21.90;66.40;;;;;;5071205;28;20404;-44
2022/10/13 10:30:43;;;;;;;9.13;7.80;;;21.70;67.00;;;;;;5069409;28;20440;-45
2022/10/13 10:33:17;;;;;;;10.77;8.77;;;21.60;67.40;;;;;;5084011;28;20423;-49
2022/10/13 10:36:06;;;;;;;7.17;5.83;;;21.50;67.60;;;;;;5087926;28;20436;-48
2022/10/13 10:38:43;;;;;;;6.10;5.33;;;21.50;69.50;;;;;;5086611;28;20745;-47
2022/10/13 10:41:43;;;;;;;7.90;5.60;;;21.70;76.80;;;;;;5089610;28;20433;-48
2022/10/13 10:44:10;;;;;;;6.70;5.30;;;22.30;76.30;;;;;;5091470;28;20508;-44
2022/10/13 10:46:45;;;;;;;6.43;5.80;;;22.90;75.00;;;;;;5089659;28;20431;-48
2022/10/13 10:49:31;;;;;;;7.30;6.53;;;23.70;72.60;;;;;;5087982;28;20416;-46
2022/10/13 10:52:05;;;;;;;7.13;6.27;;;24.50;69.90;;;;;;5092344;28;20479;-45
2022/10/13 10:54:41;;;;;;;7.00;6.30;;;24.90;66.90;;;;;;5091617;28;20982;-47
2022/10/13 10:57:12;;;;;;;6.57;5.43;;;25.10;64.40;;;;;;5089739;28;20886;-45
2022/10/13 10:59:53;;;;;;;7.37;6.57;;;25.20;63.70;;;;;;5092441;28;20823;-46
2022/10/13 11:02:45;;;;;;;7.90;6.67;;;25.20;62.00;;;;;;5090875;28;20402;-46
2022/10/13 11:05:11;;;;;;;6.13;5.63;;;25.00;62.10;;;;;;5092180;28;20425;-47
2022/10/13 11:07:44;;;;;;;6.27;5.63;;;24.80;62.10;;;;;;5091744;28;20408;-46
2022/10/13 11:10:12;;;;;;;6.40;5.43;;;24.60;62.60;;;;;;5090631;28;20443;-46
2022/10/13 11:12:44;;;;;;;7.33;6.53;;;24.50;63.40;;;;;;5091788;28;20771;-48
2022/10/13 11:15:13;;;;;;;6.83;6.20;;;24.50;63.80;;;;;;5092141;28;20433;-46
2022/10/13 11:17:40;;;;;;;6.90;6.30;;;24.60;63.00;;;;;;5092036;28;20469;-45
2022/10/13 11:20:21;;;;;;;7.40;6.17;;;24.70;62.80;;;;;;5092291;28;20684;-46
2022/10/13 11:22:58;;;;;;;7.97;6.40;;;25.10;62.00;;;;;;5093230;28;20452;-46
2022/10/13 11:25:25;;;;;;;10.77;6.53;;;25.50;60.70;;;;;;5094201;28;20443;-48
2022/10/13 11:27:51;;;;;;;8.63;6.87;;;25.60;59.50;;;;;;5090906;28;20419;-43
2022/10/13 11:30:41;;;;;;;6.50;5.90;;;25.70;59.40;;;;;;5091365;28;20421;-46
2022/10/13 11:33:46;;;;;;;8.87;6.87;;;25.70;58.90;;;;;;5089795;28;20180;-45
2022/10/13 11:36:50;;;;;;;7.53;6.13;;;25.70;58.80;;;;;;5090891;28;20471;-44
2022/10/13 11:39:27;;;;;;;6.90;6.20;;;25.60;58.60;;;;;;5091709;28;20430;-48
2022/10/13 11:42:10;;;;;;;6.47;5.87;;;25.60;58.20;;;;;;5091561;28;20447;-45
2022/10/13 11:44:56;;;;;;;8.27;5.83;;;25.50;58.30;;;;;;5090334;28;20443;-46
2022/10/13 11:47:33;;;;;;;8.37;6.20;;;25.70;58.50;;;;;;5091589;28;20878;-46
2022/10/13 11:50:11;;;;;;;7.17;6.47;;;25.90;58.00;;;;;;5092964;28;20426;-45
2022/10/13 11:52:54;;;;;;;7.43;6.73;;;25.80;57.80;;;;;;5088155;28;20448;-46
2022/10/13 11:55:49;;;;;;;5.67;4.80;;;25.70;57.50;;;;;;5090776;28;20417;-48
2022/10/13 11:58:23;;;;;;;6.30;5.70;;;25.50;57.90;;;;;;5084004;28;20513;-47
2022/10/13 12:00:52;;;;;;;7.33;6.73;;;25.30;58.20;;;;;;5089293;28;20459;-47
2022/10/13 12:03:38;;;;;;;6.50;5.90;;;25.10;58.50;;;;;;5090405;28;20553;-46
2022/10/13 12:06:06;;;;;;;7.07;5.87;;;24.90;58.70;;;;;;5091159;28;20425;-49
2022/10/13 12:08:34;;;;;;;6.93;6.23;;;24.80;58.80;;;;;;5090867;28;20406;-43
2022/10/13 12:11:03;;;;;;;7.80;7.10;;;24.80;59.10;;;;;;5090662;28;20425;-46
2022/10/13 12:13:30;;;;;;;8.63;6.27;;;24.90;58.90;;;;;;5090814;28;20433;-44
2022/10/13 12:16:02;;;;;;;6.97;6.27;;;25.60;58.50;;;;;;5094636;28;20415;-46
2022/10/13 12:18:32;;;;;;;6.83;5.90;;;26.90;57.10;;;;;;5093951;28;20563;-46
2022/10/13 12:21:02;;;;;;;7.63;5.40;;;27.80;56.10;;;;;;5094904;28;20421;-45
2022/10/13 12:23:28;;;;;;;7.50;6.80;;;28.10;54.80;;;;;;5093773;28;20418;-46
2022/10/13 12:25:57;;;;;;;7.53;6.97;;;28.00;53.80;;;;;;5094894;28;20529;-47
2022/10/13 12:28:26;;;;;;;8.30;6.37;;;27.70;53.70;;;;;;5094561;28;20906;-45
2022/10/13 12:30:55;;;;;;;7.83;7.03;;;27.40;54.30;;;;;;5091921;28;20882;-44
2022/10/13 12:33:36;;;;;;;6.97;6.27;;;27.10;54.40;;;;;;5090201;28;20772;-48
2022/10/13 12:36:19;;;;;;;6.33;5.80;;;27.60;54.40;;;;;;5093359;28;20438;-47
2022/10/13 12:38:49;;;;;;;5.00;4.60;;;28.70;53.90;;;;;;5091095;28;20790;-47
2022/10/13 12:41:23;;;;;;;5.60;5.10;;;29.80;52.70;;;;;;5058175;28;20459;-48
2022/10/13 12:43:49;;;;;;;5.80;5.30;;;30.40;51.00;;;;;;5059784;28;20428;-47
2022/10/13 12:46:36;;;;;;;6.97;4.90;;;31.20;49.80;;;;;;5093877;28;20445;-46
2022/10/13 12:49:26;;;;;;;8.00;5.60;;;32.30;47.60;;;;;;5087102;28;20397;-45
2022/10/13 12:52:09;;;;;;;5.27;4.73;;;32.50;45.90;;;;;;5088415;28;20490;-44